WetterOnline ( http://www.wetteronline.de )

Wetter aktuell Würzburg

Aktuelles Wetter: Würzburg (272m)

6-stündlich | Neueste Meldungen
Ortszeit Temperatur Wetter
Sa, 26.05. 14:00 24.6° C wolkenlos
Sa, 26.05. 8:00 16.9° C fast wolkenlos
Sa, 26.05. 2:00 15.5° C fast wolkenlos
Fr, 25.05. 20:00 20.9° C wolkenlos
Fr, 25.05. 14:00 22.9° C fast wolkenlos
Fr, 25.05. 8:00 14.2° C bedeckt
Fr, 25.05. 2:00 15.1° C wolkig
Do, 24.05. 20:00 18.1° C wolkenlos
Ortszeit Temperatur Wetter
Sa, 26.05. 19:30 25.1° C fast wolkenlos
Sa, 26.05. 19:20 25.1° C fast wolkenlos
Sa, 26.05. 19:10 25.2° C fast wolkenlos
Sa, 26.05. 19:00 25.6° C wolkenlos
Sa, 26.05. 18:50 25.6° C wolkenlos
Sa, 26.05. 18:40 25.5° C wolkenlos
Sa, 26.05. 18:30 25.8° C wolkenlos
Sa, 26.05. 18:00 25.3° C fast wolkenlos
Sa, 26.05. 17:30 25.3° C wolkenlos
Sa, 26.05. 17:00 25.6° C leicht bewölkt
Sa, 26.05. 16:30 25.3° C fast wolkenlos
Ortszeit Relative Feuchte Sichtweite
Sa, 26.05. 14:00 50% 50 km
Sa, 26.05. 8:00 80% 17 km
Sa, 26.05. 2:00 85% 25 km
Fr, 25.05. 20:00 66% 55 km
Fr, 25.05. 14:00 59% 40 km
Fr, 25.05. 8:00 99% 4.1 km
Fr, 25.05. 2:00 98% 3.1 km
Do, 24.05. 20:00 81% 23 km
Ortszeit Relative Feuchte Sichtweite
Sa, 26.05. 19:30 46% 55 km
Sa, 26.05. 19:20 46% -
Sa, 26.05. 19:10 46% -
Sa, 26.05. 19:00 44% 60 km
Sa, 26.05. 18:50 44% -
Sa, 26.05. 18:40 47% -
Sa, 26.05. 18:30 47% 60 km
Sa, 26.05. 18:00 46% 60 km
Sa, 26.05. 17:30 45% 55 km
Sa, 26.05. 17:00 48% 60 km
Sa, 26.05. 16:30 47% 65 km
Ortszeit Niederschlagsmenge Niederschlagsart
Sa, 26.05. 14:00 0.0 l/m2 in 6 Std. -
Sa, 26.05. 8:00 0.0 l/m2 in 12 Std. -
Sa, 26.05. 2:00 0.0 l/m2 in 6 Std. -
Fr, 25.05. 20:00 0.0 l/m2 in 12 Std. -
Fr, 25.05. 14:00 0.0 l/m2 in 6 Std. -
Fr, 25.05. 8:00 0.0 l/m2 in 12 Std. -
Fr, 25.05. 2:00 0.0 l/m2 in 6 Std. -
Do, 24.05. 20:00 3 l/m2 in 12 Std. -
Ortszeit Niederschlagsmenge Niederschlagsart
Sa, 26.05. 19:30 0.0 l/m2 in 1 Std. -
Sa, 26.05. 19:20 keine Meldung -
Sa, 26.05. 19:10 keine Meldung -
Sa, 26.05. 19:00 0.0 l/m2 in 1 Std. -
Sa, 26.05. 18:50 keine Meldung -
Sa, 26.05. 18:40 keine Meldung -
Sa, 26.05. 18:30 0.0 l/m2 in 1 Std. -
Sa, 26.05. 18:00 0.0 l/m2 in 1 Std. -
Sa, 26.05. 17:30 0.0 l/m2 in 1 Std. -
Sa, 26.05. 17:00 0.0 l/m2 in 1 Std. -
Sa, 26.05. 16:30 0.0 l/m2 in 1 Std. -
Ortszeit Stärke Spitze Richtung
km/h Bft. km/h Grad Sektor
Sa, 26.05. 14:00 14 3 25 130° SO
Sa, 26.05. 8:00 7 2 14 90° O
Sa, 26.05. 2:00 9 2 24 120° SO
Fr, 25.05. 20:00 22 4 36 100° O
Fr, 25.05. 14:00 7 2 18 60° NO
Fr, 25.05. 8:00 4 1 11 90° O
Fr, 25.05. 2:00 2 1 22 40° NO
Do, 24.05. 20:00 17 3 28 90° O
Ortszeit Stärke Spitze Richtung
km/h Bft. km/h Grad Sektor
Sa, 26.05. 19:30 6 1 9 80° O
Sa, 26.05. 19:20 6 1 - 80° O
Sa, 26.05. 19:10 7 2 - 70° O
Sa, 26.05. 19:00 4 1 14 120° SO
Sa, 26.05. 18:50 4 1 - 120° SO
Sa, 26.05. 18:40 7 2 - 100° O
Sa, 26.05. 18:30 4 1 11 140° SO
Sa, 26.05. 18:00 6 1 15 130° SO
Sa, 26.05. 17:30 4 1 14 160° S
Sa, 26.05. 17:00 7 2 17 150° SO
Sa, 26.05. 16:30 7 2 14 110° O
Ortszeit Untergrenze Bedeckung Gattung
total tief tief mittel hoch
Sa, 26.05. 14:00 - 0/8 0/8 - - -
Sa, 26.05. 8:00 660 m 1/8 1/8 - - -
Sa, 26.05. 2:00 12000 m 1/8 0/8 - - -
Fr, 25.05. 20:00 12000 m 0/8 0/8 - - -
Fr, 25.05. 14:00 810 m 1/8 1/8 - - -
Fr, 25.05. 8:00 60 m 8/8 8/8 - - -
Fr, 25.05. 2:00 630 m 7/8 1/8 - - -
Do, 24.05. 20:00 - 0/8 0/8 - - -
Ortszeit Bedeckungsgrad in Achtel und Wolkenuntergrenze
Sa, 26.05. 19:30 1(7200m)
Sa, 26.05. 19:20 1(7200m)
Sa, 26.05. 19:10 1(7200m)
Sa, 26.05. 19:00 2(7200m)
Sa, 26.05. 18:50 keine Wolken
Sa, 26.05. 18:40 keine Wolken
Sa, 26.05. 18:30 keine Wolken
Sa, 26.05. 18:00 1(6600m)
Sa, 26.05. 17:30 1(6600m)
Sa, 26.05. 17:00 1(1500m)
Sa, 26.05. 16:30 1(1500m)
Ortszeit Luftdruck NN (hPa) Tendenz (hPa in 3 Std.)
Sa, 26.05. 14:00 1020 - 0,1
Sa, 26.05. 8:00 1021 + 0,9
Sa, 26.05. 2:00 1020 + 0,5
Fr, 25.05. 20:00 1018 + 0,2
Fr, 25.05. 14:00 1018 - 0,6
Fr, 25.05. 8:00 1019 + 0,5
Fr, 25.05. 2:00 1019 + 0,3
Do, 24.05. 20:00 1017 - 0,2
Ortszeit Luftdruck NN (hPa) Tendenz (hPa in 3 Std.)
Sa, 26.05. 19:30 1019 - 0,5
Sa, 26.05. 19:20 1019 keine Meldung
Sa, 26.05. 19:10 1019 keine Meldung
Sa, 26.05. 19:00 1019 - 0,5
Sa, 26.05. 18:50 1019 keine Meldung
Sa, 26.05. 18:40 1019 keine Meldung
Sa, 26.05. 18:30 1019 - 0,6
Sa, 26.05. 18:00 1019 - 0,6
Sa, 26.05. 17:30 1020 - 0,6
Sa, 26.05. 17:00 1019 - 0,7
Sa, 26.05. 16:30 1020 - 0,6
Ortszeit Schneehöhe (cm)
Sa, 26.05. 14:00 -
Sa, 26.05. 8:00 -
Sa, 26.05. 2:00 -
Fr, 25.05. 20:00 -
Fr, 25.05. 14:00 -
Fr, 25.05. 8:00 -
Fr, 25.05. 2:00 -
Do, 24.05. 20:00 -
Ortszeit Schneehöhe (cm)
Sa, 26.05. 19:30 -
Sa, 26.05. 19:20 -
Sa, 26.05. 19:10 -
Sa, 26.05. 19:00 -
Sa, 26.05. 18:50 -
Sa, 26.05. 18:40 -
Sa, 26.05. 18:30 -
Sa, 26.05. 18:00 -
Sa, 26.05. 17:30 -
Sa, 26.05. 17:00 -
Sa, 26.05. 16:30 -
Link zu dieser Seite / Seite empfehlen

Das Wetter in ...